Time;durP1;ratioP1;P1;durP2;ratioP2;P2;SDS_P1;SDS_P2;PMS_P1;PMS_P2;Temp;Humidity;BMP_temperature;BMP_pressure;BME280_temperature;BME280_humidity;BME280_pressure;Samples;Min_cycle;Max_cycle;Signal;HPM_P1;HPM_P2
2022/06/25 00:00:43;;;;;;;;;;;;;;;;;;2082500;28;19921;-43
2022/06/25 00:01:44;;;;;;;;;;;;;;;;;;2082357;28;19921;-43
2022/06/25 00:02:44;;;;;;;;;;;;;;;;;;2082830;28;19948;-45
2022/06/25 00:03:46;;;;;;;;;;;;;;;;;;2082396;28;19970;-45
2022/06/25 00:06:06;;;;;;;;;;;;;;;;;;2082381;28;19924;-45
2022/06/25 00:07:07;;;;;;;;;;;;;;;;;;2082511;28;19920;-45
2022/06/25 00:08:08;;;;;;;;;;;;;;;;;;2082471;28;19921;-46
2022/06/25 00:09:09;;;;;;;;;;;;;;;;;;2082357;28;19925;-45
2022/06/25 00:10:09;;;;;;;;;;;;;;;;;;2082613;28;19971;-44
2022/06/25 00:12:31;;;;;;;;;;;;;;;;;;2082117;28;20003;-43
2022/06/25 00:12:32;;;;;;;;;;;;;;;;;;2082450;28;20123;-43
2022/06/25 00:13:33;;;;;;;;;;;;;;;;;;2082412;28;20055;-43
2022/06/25 00:14:34;;;;;;;;;;;;;;;;;;2087807;28;20011;-43
2022/06/25 00:15:35;;;;;;;;;;;;;;;;;;2090683;28;19920;-43
2022/06/25 00:16:36;;;;;;;;;;;;;;;;;;2090527;28;20466;-43
2022/06/25 00:17:37;;;;;;;;;;;;;;;;;;2090711;28;20238;-43
2022/06/25 00:18:38;;;;;;;;;;;;;;;;;;2090694;28;19927;-43
2022/06/25 00:19:39;;;;;;;;;;;;;;;;;;2090548;28;19946;-44
2022/06/25 00:20:40;;;;;;;;;;;;;;;;;;2090469;28;19944;-44
2022/06/25 00:21:47;;;;;;;;;;;;;;;;;;2090596;28;20019;-43
2022/06/25 00:22:47;;;;;;;;;;;;;;;;;;2090661;28;19963;-43
2022/06/25 00:23:48;;;;;;;;;;;;;;;;;;2089993;28;19920;-43
2022/06/25 00:24:49;;;;;;;;;;;;;;;;;;2090549;28;19928;-43
2022/06/25 00:25:50;;;;;;;;;;;;;;;;;;2090471;28;19976;-43
2022/06/25 00:26:51;;;;;;;;;;;;;;;;;;2090373;28;20007;-43
2022/06/25 00:27:52;;;;;;;;;;;;;;;;;;2090445;28;19960;-43
2022/06/25 00:28:53;;;;;;;;;;;;;;;;;;2090476;28;20386;-43
2022/06/25 00:29:54;;;;;;;;;;;;;;;;;;2090409;28;19921;-43
2022/06/25 00:30:55;;;;;;;;;;;;;;;;;;2082183;28;19921;-44
2022/06/25 00:31:56;;;;;;;;;;;;;;;;;;2082563;28;20311;-45
2022/06/25 00:32:56;;;;;;;;;;;;;;;;;;2082289;28;19921;-45
2022/06/25 00:33:57;;;;;;;;;;;;;;;;;;2082213;28;19987;-46
2022/06/25 00:34:58;;;;;;;;;;;;;;;;;;2082218;28;19921;-45
2022/06/25 00:35:59;;;;;;;;;;;;;;;;;;2082251;28;20010;-45
2022/06/25 00:37:01;;;;;;;;;;;;;;;;;;2082304;28;20091;-45
2022/06/25 00:38:02;;;;;;;;;;;;;;;;;;2082159;28;20035;-45
2022/06/25 00:39:02;;;;;;;;;;;;;;;;;;2082209;28;20051;-45
2022/06/25 00:40:03;;;;;;;;;;;;;;;;;;2082164;28;19921;-45
2022/06/25 00:41:04;;;;;;;;;;;;;;;;;;2082291;28;20015;-45
2022/06/25 00:42:05;;;;;;;;;;;;;;;;;;2082191;28;19925;-46
2022/06/25 00:43:06;;;;;;;;;;;;;;;;;;2082291;28;20397;-45
2022/06/25 00:44:07;;;;;;;;;;;;;;;;;;2082083;28;19948;-45
2022/06/25 00:45:08;;;;;;;;;;;;;;;;;;2082045;28;20412;-46
2022/06/25 00:46:09;;;;;;;;;;;;;;;;;;2081980;28;20019;-45
2022/06/25 00:47:10;;;;;;;;;;;;;;;;;;2082109;28;19925;-45
2022/06/25 00:48:11;;;;;;;;;;;;;;;;;;2082032;28;19928;-46
2022/06/25 00:49:11;;;;;;;;;;;;;;;;;;2082077;28;19933;-45
2022/06/25 00:50:12;;;;;;;;;;;;;;;;;;2082192;28;19944;-45
2022/06/25 00:51:13;;;;;;;;;;;;;;;;;;2081858;28;19928;-45
2022/06/25 00:52:14;;;;;;;;;;;;;;;;;;2082252;28;20389;-45
2022/06/25 00:53:15;;;;;;;;;;;;;;;;;;2082075;28;19921;-45
2022/06/25 00:54:16;;;;;;;;;;;;;;;;;;2082013;28;19921;-45
2022/06/25 00:55:17;;;;;;;;;;;;;;;;;;2082362;28;19921;-43
2022/06/25 00:56:17;;;;;;;;;;;;;;;;;;2082091;28;19921;-43
2022/06/25 00:57:18;;;;;;;;;;;;;;;;;;2082118;28;19974;-43
2022/06/25 00:58:19;;;;;;;;;;;;;;;;;;2082265;28;20325;-43
2022/06/25 00:59:21;;;;;;;;;;;;;;;;;;2082240;28;19921;-45
2022/06/25 01:00:22;;;;;;;;;;;;;;;;;;2081948;28;20461;-45
2022/06/25 01:01:22;;;;;;;;;;;;;;;;;;2082043;28;19989;-46
2022/06/25 01:02:23;;;;;;;;;;;;;;;;;;2082018;28;20043;-46
2022/06/25 01:03:25;;;;;;;;;;;;;;;;;;2082006;28;19921;-45
2022/06/25 01:04:26;;;;;;;;;;;;;;;;;;2082190;28;20008;-45
2022/06/25 01:05:26;;;;;;;;;;;;;;;;;;2081987;28;19928;-45
2022/06/25 01:06:28;;;;;;;;;;;;;;;;;;2081976;28;19921;-45
2022/06/25 01:07:29;;;;;;;;;;;;;;;;;;2082022;28;20027;-45
2022/06/25 01:08:30;;;;;;;;;;;;;;;;;;2081953;28;20329;-45
2022/06/25 01:09:31;;;;;;;;;;;;;;;;;;2081981;28;19963;-46
2022/06/25 01:10:32;;;;;;;;;;;;;;;;;;2082074;28;20024;-45
2022/06/25 01:11:33;;;;;;;;;;;;;;;;;;2081728;28;20059;-45
2022/06/25 01:12:34;;;;;;;;;;;;;;;;;;2082060;28;20337;-46
2022/06/25 01:13:35;;;;;;;;;;;;;;;;;;2081956;28;20014;-45
2022/06/25 01:14:36;;;;;;;;;;;;;;;;;;2082016;28;19960;-45
2022/06/25 01:15:38;;;;;;;;;;;;;;;;;;2081856;28;19929;-45
2022/06/25 01:16:39;;;;;;;;;;;;;;;;;;2081844;28;20043;-45
2022/06/25 01:17:39;;;;;;;;;;;;;;;;;;2081929;28;20379;-45
2022/06/25 01:18:40;;;;;;;;;;;;;;;;;;2081867;28;19964;-45
2022/06/25 01:19:41;;;;;;;;;;;;;;;;;;2081936;28;19928;-45
2022/06/25 01:20:42;;;;;;;;;;;;;;;;;;2082002;28;19925;-43
2022/06/25 01:21:44;;;;;;;;;;;;;;;;;;2081914;28;20028;-43
2022/06/25 01:22:45;;;;;;;;;;;;;;;;;;2082024;28;19921;-43
2022/06/25 01:23:46;;;;;;;;;;;;;;;;;;2082063;28;19921;-43
2022/06/25 01:24:47;;;;;;;;;;;;;;;;;;2081807;28;20299;-43
2022/06/25 01:25:48;;;;;;;;;;;;;;;;;;2081806;28;20355;-43
2022/06/25 01:26:49;;;;;;;;;;;;;;;;;;2081529;28;19978;-43
2022/06/25 01:27:50;;;;;;;;;;;;;;;;;;2081979;28;19948;-43
2022/06/25 01:28:51;;;;;;;;;;;;;;;;;;2081905;28;20286;-43
2022/06/25 01:29:52;;;;;;;;;;;;;;;;;;2081812;28;20336;-43
2022/06/25 01:30:53;;;;;;;;;;;;;;;;;;2082002;28;19921;-45
2022/06/25 01:31:54;;;;;;;;;;;;;;;;;;2081875;28;19925;-46
2022/06/25 01:32:55;;;;;;;;;;;;;;;;;;2081990;28;19921;-45
2022/06/25 01:33:55;;;;;;;;;;;;;;;;;;2081862;28;19921;-46
2022/06/25 01:34:56;;;;;;;;;;;;;;;;;;2081558;28;20007;-45
2022/06/25 01:35:57;;;;;;;;;;;;;;;;;;2081599;28;19921;-43
2022/06/25 01:36:58;;;;;;;;;;;;;;;;;;2081955;28;19921;-43
2022/06/25 01:37:59;;;;;;;;;;;;;;;;;;2081815;28;20027;-43
2022/06/25 01:39:00;;;;;;;;;;;;;;;;;;2081782;28;20027;-43
2022/06/25 01:40:01;;;;;;;;;;;;;;;;;;2081937;28;19967;-43
2022/06/25 01:41:01;;;;;;;;;;;;;;;;;;2081576;28;19964;-43
2022/06/25 01:42:03;;;;;;;;;;;;;;;;;;2081910;28;19921;-43
2022/06/25 01:43:04;;;;;;;;;;;;;;;;;;2082052;28;19921;-43
2022/06/25 01:44:05;;;;;;;;;;;;;;;;;;2082143;28;20003;-46
2022/06/25 01:45:06;;;;;;;;;;;;;;;;;;2081951;28;19963;-43
2022/06/25 01:46:07;;;;;;;;;;;;;;;;;;2081753;28;20023;-44
2022/06/25 01:47:07;;;;;;;;;;;;;;;;;;2081778;28;19921;-43
2022/06/25 01:48:08;;;;;;;;;;;;;;;;;;2081728;28;19944;-43
2022/06/25 01:49:09;;;;;;;;;;;;;;;;;;2081755;28;19932;-43
2022/06/25 01:50:10;;;;;;;;;;;;;;;;;;2081917;28;20379;-46
2022/06/25 01:51:11;;;;;;;;;;;;;;;;;;2081786;28;19929;-45
2022/06/25 01:52:12;;;;;;;;;;;;;;;;;;2081678;28;19963;-45
2022/06/25 01:53:13;;;;;;;;;;;;;;;;;;2081836;28;20000;-45
2022/06/25 01:54:14;;;;;;;;;;;;;;;;;;2081695;28;20260;-45
2022/06/25 01:55:15;;;;;;;;;;;;;;;;;;2081930;28;19921;-46
2022/06/25 01:56:16;;;;;;;;;;;;;;;;;;2081620;28;19921;-45
2022/06/25 01:57:16;;;;;;;;;;;;;;;;;;2082022;28;19979;-46
2022/06/25 01:58:17;;;;;;;;;;;;;;;;;;2081591;28;20143;-45
2022/06/25 01:59:18;;;;;;;;;;;;;;;;;;2081612;28;20309;-46
2022/06/25 02:00:19;;;;;;;;;;;;;;;;;;2081739;28;19957;-45
2022/06/25 02:01:20;;;;;;;;;;;;;;;;;;2081806;28;19970;-43
2022/06/25 02:02:21;;;;;;;;;;;;;;;;;;2081635;28;19921;-43
2022/06/25 02:03:22;;;;;;;;;;;;;;;;;;2081632;28;20424;-42
2022/06/25 02:04:23;;;;;;;;;;;;;;;;;;2081732;28;19928;-43
2022/06/25 02:06:39;;;;;;;;;;;;;;;;;;2081549;28;20357;-43
2022/06/25 02:07:40;;;;;;;;;;;;;;;;;;2081649;28;19932;-43
2022/06/25 02:08:42;;;;;;;;;;;;;;;;;;2081613;28;19925;-43
2022/06/25 02:09:42;;;;;;;;;;;;;;;;;;2081616;28;20134;-43
2022/06/25 02:10:43;;;;;;;;;;;;;;;;;;2081670;28;20022;-43
2022/06/25 02:11:44;;;;;;;;;;;;;;;;;;2081281;28;19921;-43
2022/06/25 02:12:45;;;;;;;;;;;;;;;;;;2081720;28;19967;-42
2022/06/25 02:13:46;;;;;;;;;;;;;;;;;;2081689;28;20196;-43
2022/06/25 02:14:47;;;;;;;;;;;;;;;;;;2082188;28;19963;-45
2022/06/25 02:15:47;;;;;;;;;;;;;;;;;;2081601;28;20394;-45
2022/06/25 02:16:49;;;;;;;;;;;;;;;;;;2081523;28;19921;-45
2022/06/25 02:17:49;;;;;;;;;;;;;;;;;;2081516;28;20405;-45
2022/06/25 02:18:50;;;;;;;;;;;;;;;;;;2081714;28;19921;-45
2022/06/25 02:19:51;;;;;;;;;;;;;;;;;;2081575;28;19928;-46
2022/06/25 02:20:52;;;;;;;;;;;;;;;;;;2081630;28;19929;-43
2022/06/25 02:21:53;;;;;;;;;;;;;;;;;;2081660;28;19925;-43
2022/06/25 02:22:54;;;;;;;;;;;;;;;;;;2081461;28;19927;-42
2022/06/25 02:23:55;;;;;;;;;;;;;;;;;;2081681;28;20075;-45
2022/06/25 02:24:56;;;;;;;;;;;;;;;;;;2081629;28;19921;-44
2022/06/25 02:25:57;;;;;;;;;;;;;;;;;;2081359;28;20378;-45
2022/06/25 02:26:58;;;;;;;;;;;;;;;;;;2081557;28;19963;-44
2022/06/25 02:27:59;;;;;;;;;;;;;;;;;;2081543;28;19921;-44
2022/06/25 02:28:59;;;;;;;;;;;;;;;;;;2081527;28;19925;-44
2022/06/25 02:30:00;;;;;;;;;;;;;;;;;;2081357;28;19921;-45
2022/06/25 02:31:01;;;;;;;;;;;;;;;;;;2081523;28;19928;-44
2022/06/25 02:32:03;;;;;;;;;;;;;;;;;;2081352;28;19975;-44
2022/06/25 02:33:03;;;;;;;;;;;;;;;;;;2081675;28;19927;-45
2022/06/25 02:34:04;;;;;;;;;;;;;;;;;;2081696;28;19928;-45
2022/06/25 02:35:05;;;;;;;;;;;;;;;;;;2081580;28;19928;-42
2022/06/25 02:36:06;;;;;;;;;;;;;;;;;;2081489;28;20038;-42
2022/06/25 02:37:07;;;;;;;;;;;;;;;;;;2081431;28;20326;-43
2022/06/25 02:38:08;;;;;;;;;;;;;;;;;;2081570;28;19921;-42
2022/06/25 02:39:09;;;;;;;;;;;;;;;;;;2081797;28;20389;-43
2022/06/25 02:40:10;;;;;;;;;;;;;;;;;;2081424;28;19925;-42
2022/06/25 02:41:11;;;;;;;;;;;;;;;;;;2081340;28;20008;-42
2022/06/25 02:42:12;;;;;;;;;;;;;;;;;;2081538;28;20013;-43
2022/06/25 02:43:12;;;;;;;;;;;;;;;;;;2081385;28;20298;-42
2022/06/25 02:44:14;;;;;;;;;;;;;;;;;;2081341;28;20007;-42
2022/06/25 02:45:14;;;;;;;;;;;;;;;;;;2081513;28;20008;-42
2022/06/25 02:46:15;;;;;;;;;;;;;;;;;;2081255;28;20318;-43
2022/06/25 02:47:16;;;;;;;;;;;;;;;;;;2081311;28;19921;-41
2022/06/25 02:48:17;;;;;;;;;;;;;;;;;;2081307;28;20075;-42
2022/06/25 02:49:18;;;;;;;;;;;;;;;;;;2081575;28;20410;-42
2022/06/25 02:50:19;;;;;;;;;;;;;;;;;;2081226;28;19929;-42
2022/06/25 02:51:20;;;;;;;;;;;;;;;;;;2081840;28;20297;-42
2022/06/25 02:52:21;;;;;;;;;;;;;;;;;;2081301;28;20008;-42
2022/06/25 02:53:21;;;;;;;;;;;;;;;;;;2081430;28;20011;-44
2022/06/25 02:54:22;;;;;;;;;;;;;;;;;;2081474;28;19921;-42
2022/06/25 02:58:54;;;;;;;;;;;;;;;;;;2081519;28;20024;-42
2022/06/25 02:59:23;;;;;;;;;;;;;;;;;;2081204;28;19964;-43
2022/06/25 03:00:24;;;;;;;;;;;;;;;;;;2081510;28;20004;-43
2022/06/25 03:01:25;;;;;;;;;;;;;;;;;;2081210;28;20293;-43
2022/06/25 03:02:25;;;;;;;;;;;;;;;;;;2081419;28;19921;-43
2022/06/25 03:03:26;;;;;;;;;;;;;;;;;;2081482;28;20138;-42
2022/06/25 03:04:27;;;;;;;;;;;;;;;;;;2081511;28;20012;-44
2022/06/25 03:05:28;;;;;;;;;;;;;;;;;;2081395;28;20007;-44
2022/06/25 03:06:29;;;;;;;;;;;;;;;;;;2081219;28;20000;-45
2022/06/25 03:07:30;;;;;;;;;;;;;;;;;;2081297;28;20342;-44
2022/06/25 03:08:31;;;;;;;;;;;;;;;;;;2081195;28;20432;-45
2022/06/25 03:09:32;;;;;;;;;;;;;;;;;;2081296;28;19974;-45
2022/06/25 03:10:33;;;;;;;;;;;;;;;;;;2081290;28;19986;-45
2022/06/25 03:11:34;;;;;;;;;;;;;;;;;;2086798;28;20290;-43
2022/06/25 03:12:35;;;;;;;;;;;;;;;;;;2089439;28;19920;-42
2022/06/25 03:13:36;;;;;;;;;;;;;;;;;;2089525;28;19988;-42
2022/06/25 03:14:37;;;;;;;;;;;;;;;;;;2089500;28;19921;-43
2022/06/25 03:15:38;;;;;;;;;;;;;;;;;;2089453;28;19929;-42
2022/06/25 03:16:39;;;;;;;;;;;;;;;;;;2089399;28;20440;-42
2022/06/25 03:17:40;;;;;;;;;;;;;;;;;;2089308;28;20009;-43
2022/06/25 03:18:41;;;;;;;;;;;;;;;;;;2089807;28;19994;-45
2022/06/25 03:19:42;;;;;;;;;;;;;;;;;;2080983;28;20329;-45
2022/06/25 03:20:42;;;;;;;;;;;;;;;;;;2081356;28;20334;-42
2022/06/25 03:21:45;;;;;;;;;;;;;;;;;;2081089;28;20064;-43
2022/06/25 03:22:45;;;;;;;;;;;;;;;;;;2081322;28;19925;-43
2022/06/25 03:23:47;;;;;;;;;;;;;;;;;;2081058;28;20342;-42
2022/06/25 03:24:47;;;;;;;;;;;;;;;;;;2081215;28;20023;-42
2022/06/25 03:25:48;;;;;;;;;;;;;;;;;;2081270;28;19921;-42
2022/06/25 03:26:49;;;;;;;;;;;;;;;;;;2081239;28;20023;-43
2022/06/25 03:27:50;;;;;;;;;;;;;;;;;;2081390;28;20015;-42
2022/06/25 03:28:51;;;;;;;;;;;;;;;;;;2081379;28;19943;-45
2022/06/25 03:29:52;;;;;;;;;;;;;;;;;;2081191;28;19921;-45
2022/06/25 03:30:53;;;;;;;;;;;;;;;;;;2081115;28;19921;-46
2022/06/25 03:31:54;;;;;;;;;;;;;;;;;;2081268;28;20337;-44
2022/06/25 03:32:54;;;;;;;;;;;;;;;;;;2081175;28;19929;-45
2022/06/25 03:33:56;;;;;;;;;;;;;;;;;;2081287;28;19920;-46
2022/06/25 03:34:56;;;;;;;;;;;;;;;;;;2081206;28;20004;-45
2022/06/25 03:35:57;;;;;;;;;;;;;;;;;;2081204;28;20324;-43
2022/06/25 03:36:58;;;;;;;;;;;;;;;;;;2081116;28;19925;-43
2022/06/25 03:37:59;;;;;;;;;;;;;;;;;;2081128;28;19925;-43
2022/06/25 03:39:00;;;;;;;;;;;;;;;;;;2081386;28;19998;-45
2022/06/25 03:40:01;;;;;;;;;;;;;;;;;;2081164;28;19999;-45
2022/06/25 03:42:21;;;;;;;;;;;;;;;;;;2081052;28;20566;-45
2022/06/25 03:43:22;;;;;;;;;;;;;;;;;;2081208;28;20024;-46
2022/06/25 03:44:23;;;;;;;;;;;;;;;;;;2081158;28;20027;-45
2022/06/25 03:45:23;;;;;;;;;;;;;;;;;;2081196;28;20044;-45
2022/06/25 03:46:24;;;;;;;;;;;;;;;;;;2081125;28;19975;-44
2022/06/25 03:47:25;;;;;;;;;;;;;;;;;;2081061;28;20383;-45
2022/06/25 03:48:26;;;;;;;;;;;;;;;;;;2080934;28;19921;-45
2022/06/25 03:49:27;;;;;;;;;;;;;;;;;;2081185;28;20004;-45
2022/06/25 03:50:28;;;;;;;;;;;;;;;;;;2081205;28;19921;-45
2022/06/25 03:51:29;;;;;;;;;;;;;;;;;;2080881;28;20375;-46
2022/06/25 03:52:30;;;;;;;;;;;;;;;;;;2081141;28;19979;-46
2022/06/25 03:53:31;;;;;;;;;;;;;;;;;;2081249;28;19921;-46
2022/06/25 03:54:32;;;;;;;;;;;;;;;;;;2080944;28;19920;-47
2022/06/25 03:55:33;;;;;;;;;;;;;;;;;;2081122;28;20031;-47
2022/06/25 03:56:53;;;;;;;;;;;;;;;;;;2081579;28;19925;-46
2022/06/25 03:57:53;;;;;;;;;;;;;;;;;;2080940;28;20003;-44
2022/06/25 03:58:54;;;;;;;;;;;;;;;;;;2081754;28;20409;-46
2022/06/25 03:59:55;;;;;;;;;;;;;;;;;;2082545;28;20015;-45
2022/06/25 04:00:56;;;;;;;;;;;;;;;;;;2082283;28;19921;-46
2022/06/25 04:01:57;;;;;;;;;;;;;;;;;;2082453;28;19932;-46
2022/06/25 04:02:58;;;;;;;;;;;;;;;;;;2082633;28;20368;-44
2022/06/25 04:03:59;;;;;;;;;;;;;;;;;;2082666;28;19960;-47
2022/06/25 04:05:00;;;;;;;;;;;;;;;;;;2082409;28;19925;-47
2022/06/25 04:06:02;;;;;;;;;;;;;;;;;;2082319;28;19921;-46
2022/06/25 04:07:03;;;;;;;;;;;;;;;;;;2082761;28;19967;-44
2022/06/25 04:08:03;;;;;;;;;;;;;;;;;;2082502;28;20286;-44
2022/06/25 04:09:04;;;;;;;;;;;;;;;;;;2082385;28;19932;-44
2022/06/25 04:10:05;;;;;;;;;;;;;;;;;;2082443;28;19921;-44
2022/06/25 04:11:06;;;;;;;;;;;;;;;;;;2082492;28;19970;-46
2022/06/25 04:12:07;;;;;;;;;;;;;;;;;;2082550;28;20285;-45
2022/06/25 04:13:08;;;;;;;;;;;;;;;;;;2082486;28;19928;-47
2022/06/25 04:14:09;;;;;;;;;;;;;;;;;;2082484;28;20008;-44
2022/06/25 04:15:10;;;;;;;;;;;;;;;;;;2084049;28;20058;-46
2022/06/25 04:16:11;;;;;;;;;;;;;;;;;;2083884;28;20054;-44
2022/06/25 04:17:12;;;;;;;;;;;;;;;;;;2082367;28;19971;-46
2022/06/25 04:18:13;;;;;;;;;;;;;;;;;;2082233;28;19920;-47
2022/06/25 04:19:14;;;;;;;;;;;;;;;;;;2082418;28;20374;-47
2022/06/25 04:20:15;;;;;;;;;;;;;;;;;;2082353;28;19996;-46
2022/06/25 04:21:16;;;;;;;;;;;;;;;;;;2082445;28;20326;-46
2022/06/25 04:22:16;;;;;;;;;;;;;;;;;;2082190;28;20321;-47
2022/06/25 04:23:17;;;;;;;;;;;;;;;;;;2082681;28;19964;-46
2022/06/25 04:24:18;;;;;;;;;;;;;;;;;;2082391;28;19921;-48
2022/06/25 04:25:19;;;;;;;;;;;;;;;;;;2082167;28;20379;-46
2022/06/25 04:26:20;;;;;;;;;;;;;;;;;;2082195;28;19925;-46
2022/06/25 04:29:59;;;;;;;;;;;;;;;;;;2082399;28;20007;-43
2022/06/25 04:31:00;;;;;;;;;;;;;;;;;;2082190;28;19929;-43
2022/06/25 04:32:02;;;;;;;;;;;;;;;;;;2082228;28;19967;-44
2022/06/25 04:33:02;;;;;;;;;;;;;;;;;;2082290;28;19921;-44
2022/06/25 04:34:03;;;;;;;;;;;;;;;;;;2082151;28;19967;-44
2022/06/25 04:35:04;;;;;;;;;;;;;;;;;;2082270;28;20290;-44
2022/06/25 04:36:05;;;;;;;;;;;;;;;;;;2082164;28;19928;-44
2022/06/25 04:37:06;;;;;;;;;;;;;;;;;;2082520;28;19925;-47
2022/06/25 04:38:07;;;;;;;;;;;;;;;;;;2082426;28;20322;-46
2022/06/25 04:39:08;;;;;;;;;;;;;;;;;;2082123;28;20003;-46
2022/06/25 04:40:09;;;;;;;;;;;;;;;;;;2082339;28;20012;-47
2022/06/25 04:41:10;;;;;;;;;;;;;;;;;;2082150;28;20102;-46
2022/06/25 04:42:10;;;;;;;;;;;;;;;;;;2082175;28;20390;-46
2022/06/25 04:43:15;;;;;;;;;;;;;;;;;;2082316;28;20302;-45
2022/06/25 04:44:16;;;;;;;;;;;;;;;;;;2082145;28;20055;-46
2022/06/25 04:45:17;;;;;;;;;;;;;;;;;;2082144;28;20014;-44
2022/06/25 04:46:18;;;;;;;;;;;;;;;;;;2082211;28;20038;-46
2022/06/25 04:47:19;;;;;;;;;;;;;;;;;;2082253;28;19960;-46
2022/06/25 04:48:19;;;;;;;;;;;;;;;;;;2082281;28;19928;-46
2022/06/25 04:49:20;;;;;;;;;;;;;;;;;;2082105;28;20381;-46
2022/06/25 04:50:21;;;;;;;;;;;;;;;;;;2082143;28;19967;-46
2022/06/25 04:51:22;;;;;;;;;;;;;;;;;;2082026;28;19974;-44
2022/06/25 04:52:23;;;;;;;;;;;;;;;;;;2082071;28;20005;-46
2022/06/25 04:53:24;;;;;;;;;;;;;;;;;;2082227;28;19967;-45
2022/06/25 04:54:25;;;;;;;;;;;;;;;;;;2082061;28;20298;-46
2022/06/25 04:55:26;;;;;;;;;;;;;;;;;;2082150;28;19928;-46
2022/06/25 04:56:27;;;;;;;;;;;;;;;;;;2082082;28;19925;-46
2022/06/25 04:57:28;;;;;;;;;;;;;;;;;;2082147;28;19921;-45
2022/06/25 04:58:29;;;;;;;;;;;;;;;;;;2082138;28;20005;-44
2022/06/25 04:59:30;;;;;;;;;;;;;;;;;;2082354;28;20002;-45
2022/06/25 05:00:30;;;;;;;;;;;;;;;;;;2082238;28;20366;-44
2022/06/25 05:01:33;;;;;;;;;;;;;;;;;;2082224;28;19920;-42
2022/06/25 05:02:34;;;;;;;;;;;;;;;;;;2082246;28;20012;-42
2022/06/25 05:03:35;;;;;;;;;;;;;;;;;;2082001;28;20129;-43
2022/06/25 05:04:36;;;;;;;;;;;;;;;;;;2082234;28;20298;-45
2022/06/25 05:05:37;;;;;;;;;;;;;;;;;;2082571;28;20002;-44
2022/06/25 05:06:38;;;;;;;;;;;;;;;;;;2082049;28;19932;-42
2022/06/25 05:07:39;;;;;;;;;;;;;;;;;;2082316;28;20302;-43
2022/06/25 05:08:40;;;;;;;;;;;;;;;;;;2082320;28;19982;-44
2022/06/25 05:09:41;;;;;;;;;;;;;;;;;;2081622;28;20556;-45
2022/06/25 05:10:41;;;;;;;;;;;;;;;;;;2081034;28;20012;-46
2022/06/25 05:11:43;;;;;;;;;;;;;;;;;;2081724;28;19968;-44
2022/06/25 05:14:03;;;;;;;;;;;;;;;;;;2081881;28;19921;-44
2022/06/25 05:15:04;;;;;;;;;;;;;;;;;;2082063;28;20015;-45
2022/06/25 05:16:05;;;;;;;;;;;;;;;;;;2081907;28;19975;-45
2022/06/25 05:17:05;;;;;;;;;;;;;;;;;;2081964;28;20393;-45
2022/06/25 05:18:06;;;;;;;;;;;;;;;;;;2081892;28;19932;-44
2022/06/25 05:19:07;;;;;;;;;;;;;;;;;;2082077;28;19921;-45
2022/06/25 05:20:09;;;;;;;;;;;;;;;;;;2082346;28;19921;-44
2022/06/25 05:21:10;;;;;;;;;;;;;;;;;;2082052;28;19921;-42
2022/06/25 05:22:14;;;;;;;;;;;;;;;;;;2082043;28;19928;-43
2022/06/25 05:23:15;;;;;;;;;;;;;;;;;;2081708;28;19921;-42
2022/06/25 05:24:16;;;;;;;;;;;;;;;;;;2082188;28;19971;-43
2022/06/25 05:25:18;;;;;;;;;;;;;;;;;;2082158;28;19921;-45
2022/06/25 05:26:19;;;;;;;;;;;;;;;;;;2081728;28;19982;-45
2022/06/25 05:27:19;;;;;;;;;;;;;;;;;;2082100;28;20020;-46
2022/06/25 05:28:20;;;;;;;;;;;;;;;;;;2082442;28;20389;-45
2022/06/25 05:29:22;;;;;;;;;;;;;;;;;;2081854;28;20356;-46
2022/06/25 05:30:22;;;;;;;;;;;;;;;;;;2081813;28;20082;-47
2022/06/25 05:31:23;;;;;;;;;;;;;;;;;;2082035;28;19925;-46
2022/06/25 05:32:24;;;;;;;;;;;;;;;;;;2081946;28;19927;-43
2022/06/25 05:33:25;;;;;;;;;;;;;;;;;;2081829;28;19929;-44
2022/06/25 05:34:26;;;;;;;;;;;;;;;;;;2082232;28;19928;-43
2022/06/25 05:35:27;;;;;;;;;;;;;;;;;;2081838;28;19956;-44
2022/06/25 05:36:28;;;;;;;;;;;;;;;;;;2081805;28;20002;-44
2022/06/25 05:37:29;;;;;;;;;;;;;;;;;;2082098;28;20385;-45
2022/06/25 05:38:29;;;;;;;;;;;;;;;;;;2081989;28;20011;-46
2022/06/25 05:39:30;;;;;;;;;;;;;;;;;;2081726;28;19972;-46
2022/06/25 05:40:31;;;;;;;;;;;;;;;;;;2081913;28;19921;-45
2022/06/25 05:41:32;;;;;;;;;;;;;;;;;;2081612;28;20016;-46
2022/06/25 05:42:38;;;;;;;;;;;;;;;;;;2081807;28;19928;-46
2022/06/25 05:43:39;;;;;;;;;;;;;;;;;;2081946;28;19925;-45
2022/06/25 05:44:40;;;;;;;;;;;;;;;;;;2081893;28;20016;-45
2022/06/25 05:45:41;;;;;;;;;;;;;;;;;;2081994;28;19983;-44
2022/06/25 05:46:42;;;;;;;;;;;;;;;;;;2082013;28;20007;-46
2022/06/25 05:47:43;;;;;;;;;;;;;;;;;;2081801;28;19921;-47
2022/06/25 05:48:44;;;;;;;;;;;;;;;;;;2082043;28;19971;-45
2022/06/25 05:49:45;;;;;;;;;;;;;;;;;;2082328;28;20410;-47
2022/06/25 05:50:45;;;;;;;;;;;;;;;;;;2081881;28;19944;-46
2022/06/25 05:51:46;;;;;;;;;;;;;;;;;;2082291;28;19921;-46
2022/06/25 05:52:47;;;;;;;;;;;;;;;;;;2081743;28;20315;-46
2022/06/25 05:53:49;;;;;;;;;;;;;;;;;;2082166;28;19960;-43
2022/06/25 05:54:50;;;;;;;;;;;;;;;;;;2081935;28;20343;-44
2022/06/25 05:55:51;;;;;;;;;;;;;;;;;;2081672;28;19925;-44
2022/06/25 05:56:52;;;;;;;;;;;;;;;;;;2081887;28;19942;-44
2022/06/25 05:57:53;;;;;;;;;;;;;;;;;;2081750;28;20007;-44
2022/06/25 05:58:55;;;;;;;;;;;;;;;;;;2081781;28;19974;-45
2022/06/25 05:59:56;;;;;;;;;;;;;;;;;;2081660;28;20007;-44
2022/06/25 06:00:57;;;;;;;;;;;;;;;;;;2081722;28;19960;-44
2022/06/25 06:01:58;;;;;;;;;;;;;;;;;;2081716;28;20026;-44
2022/06/25 06:02:59;;;;;;;;;;;;;;;;;;2082107;28;19921;-46
2022/06/25 06:04:00;;;;;;;;;;;;;;;;;;2082455;28;19993;-44
2022/06/25 06:05:01;;;;;;;;;;;;;;;;;;2081979;28;19925;-47
2022/06/25 06:06:03;;;;;;;;;;;;;;;;;;2081661;28;20489;-46
2022/06/25 06:07:04;;;;;;;;;;;;;;;;;;2081734;28;19970;-46
2022/06/25 06:08:05;;;;;;;;;;;;;;;;;;2081502;28;20291;-44
2022/06/25 06:09:06;;;;;;;;;;;;;;;;;;2082137;28;19925;-47
2022/06/25 06:10:07;;;;;;;;;;;;;;;;;;2081935;28;20052;-44
2022/06/25 06:11:08;;;;;;;;;;;;;;;;;;2081689;28;20159;-46
2022/06/25 06:12:09;;;;;;;;;;;;;;;;;;2081941;28;20091;-47
2022/06/25 06:13:09;;;;;;;;;;;;;;;;;;2081821;28;19925;-43
2022/06/25 06:14:11;;;;;;;;;;;;;;;;;;2081993;28;19960;-44
2022/06/25 06:15:11;;;;;;;;;;;;;;;;;;2082001;28;19979;-47
2022/06/25 06:16:12;;;;;;;;;;;;;;;;;;2082042;28;19921;-44
2022/06/25 06:17:13;;;;;;;;;;;;;;;;;;2081709;28;19921;-43
2022/06/25 06:18:14;;;;;;;;;;;;;;;;;;2081884;28;19979;-46
2022/06/25 06:19:15;;;;;;;;;;;;;;;;;;2081668;28;20039;-45
2022/06/25 06:20:16;;;;;;;;;;;;;;;;;;2081558;28;20012;-46
2022/06/25 06:21:17;;;;;;;;;;;;;;;;;;2081222;28;20019;-46
2022/06/25 06:22:18;;;;;;;;;;;;;;;;;;2081566;28;19928;-43
2022/06/25 06:23:18;;;;;;;;;;;;;;;;;;2082106;28;19921;-46
2022/06/25 06:24:19;;;;;;;;;;;;;;;;;;2081554;28;20287;-44
2022/06/25 06:25:20;;;;;;;;;;;;;;;;;;2081539;28;20330;-44
2022/06/25 06:26:21;;;;;;;;;;;;;;;;;;2081475;28;20015;-44
2022/06/25 06:27:22;;;;;;;;;;;;;;;;;;2082827;28;20016;-46
2022/06/25 06:28:23;;;;;;;;;;;;;;;;;;2081470;28;20369;-47
2022/06/25 06:29:24;;;;;;;;;;;;;;;;;;2082040;28;19921;-46
2022/06/25 06:30:25;;;;;;;;;;;;;;;;;;2082135;28;20351;-45
2022/06/25 06:31:26;;;;;;;;;;;;;;;;;;2081537;28;19972;-44
2022/06/25 06:32:27;;;;;;;;;;;;;;;;;;2081598;28;19921;-44
2022/06/25 06:33:28;;;;;;;;;;;;;;;;;;2081560;28;19960;-46
2022/06/25 06:34:29;;;;;;;;;;;;;;;;;;2082072;28;19925;-45
2022/06/25 06:35:30;;;;;;;;;;;;;;;;;;2081427;28;20046;-43
2022/06/25 06:36:31;;;;;;;;;;;;;;;;;;2081724;28;19928;-44
2022/06/25 06:37:32;;;;;;;;;;;;;;;;;;2081447;28;19963;-44
2022/06/25 06:38:33;;;;;;;;;;;;;;;;;;2081704;28;20359;-44
2022/06/25 06:39:34;;;;;;;;;;;;;;;;;;2081623;28;19920;-44
2022/06/25 06:40:35;;;;;;;;;;;;;;;;;;2081651;28;20325;-47
2022/06/25 06:41:36;;;;;;;;;;;;;;;;;;2081586;28;19927;-46
2022/06/25 06:42:38;;;;;;;;;;;;;;;;;;2081623;28;20416;-46
2022/06/25 06:43:38;;;;;;;;;;;;;;;;;;2081394;28;20024;-46
2022/06/25 06:44:39;;;;;;;;;;;;;;;;;;2081401;28;19927;-46
2022/06/25 06:45:41;;;;;;;;;;;;;;;;;;2081566;28;20020;-47
2022/06/25 06:46:42;;;;;;;;;;;;;;;;;;2081925;28;19924;-46
2022/06/25 06:47:43;;;;;;;;;;;;;;;;;;2082471;28;19921;-47
2022/06/25 06:48:44;;;;;;;;;;;;;;;;;;2081820;28;19964;-46
2022/06/25 06:49:46;;;;;;;;;;;;;;;;;;2081731;28;20002;-47
2022/06/25 06:50:46;;;;;;;;;;;;;;;;;;2081621;28;20012;-46
2022/06/25 06:51:47;;;;;;;;;;;;;;;;;;2081883;28;19921;-43
2022/06/25 06:52:48;;;;;;;;;;;;;;;;;;2082007;28;19929;-45
2022/06/25 06:53:49;;;;;;;;;;;;;;;;;;2082149;28;19923;-43
2022/06/25 06:54:50;;;;;;;;;;;;;;;;;;2081285;28;19944;-44
2022/06/25 06:55:51;;;;;;;;;;;;;;;;;;2081657;28;19972;-50
2022/06/25 06:56:53;;;;;;;;;;;;;;;;;;2081696;28;19928;-45
2022/06/25 06:57:54;;;;;;;;;;;;;;;;;;2081842;28;20372;-43
2022/06/25 06:58:54;;;;;;;;;;;;;;;;;;2081518;28;19921;-43
2022/06/25 06:59:58;;;;;;;;;;;;;;;;;;2081816;28;19975;-45
2022/06/25 07:00:59;;;;;;;;;;;;;;;;;;2080913;28;20029;-46
2022/06/25 07:02:00;;;;;;;;;;;;;;;;;;2081948;28;20075;-43
2022/06/25 07:03:01;;;;;;;;;;;;;;;;;;2081159;28;19947;-43
2022/06/25 07:04:02;;;;;;;;;;;;;;;;;;2081087;28;20927;-44
2022/06/25 07:05:03;;;;;;;;;;;;;;;;;;2081096;28;20422;-44
2022/06/25 07:06:04;;;;;;;;;;;;;;;;;;2081708;28;19928;-47
2022/06/25 07:07:05;;;;;;;;;;;;;;;;;;2081548;28;19921;-46
2022/06/25 07:08:06;;;;;;;;;;;;;;;;;;2081712;28;19963;-48